< < Back
Terminal Aerodrome Forecast


Current Version              Previous Versions:   1  2  3  4  5  6  7  8  9  

Terminal Aerodrome Forecast

746
FTUS44 KBMX 291257 AAB
TAFBHM
TAF AMD
KBHM 291257Z 2913/3012 23005KT P6SM BKN020
     FM291500 25006KT P6SM VCSH BKN035
     FM291800 25008KT P6SM VCTS BKN050CB
     FM300200 23004KT P6SM SCT025=

Latest METAR

670
SAUS70 KWBC 301100 RRK
MTRBHM
METAR KBHM 301053Z 24006KT 10SM SCT036 26/22 A3004 RMK AO2 SLP163
T02560217


USA.gov is the U.S. government's official web portal to all federal, state and local government web resources and services.